Time;durP1;ratioP1;P1;durP2;ratioP2;P2;SDS_P1;SDS_P2;PMS_P1;PMS_P2;Temp;Humidity;BMP_temperature;BMP_pressure;BME280_temperature;BME280_humidity;BME280_pressure;Samples;Min_cycle;Max_cycle;Signal;HPM_P1;HPM_P2
2023/12/14 00:02:00;;;;;;;16.95;9.52;;;;;;;3.03;89.00;91582.34;2050568;70;20169;-81
2023/12/14 00:04:26;;;;;;;12.48;7.68;;;;;;;3.10;89.00;91591.84;2051258;69;20145;-82
2023/12/14 00:06:53;;;;;;;11.13;6.95;;;;;;;3.12;88.58;91596.81;2050204;70;20933;-80
2023/12/14 00:09:20;;;;;;;11.98;6.30;;;;;;;3.14;88.56;91585.81;2051007;70;20196;-82
2023/12/14 00:11:46;;;;;;;10.45;6.20;;;;;;;3.22;88.21;91592.69;2051415;70;20249;-82
2023/12/14 00:14:11;;;;;;;10.27;5.80;;;;;;;3.15;87.84;91582.44;2051388;70;20257;-83
2023/12/14 00:16:37;;;;;;;10.68;5.50;;;;;;;2.88;89.74;91588.22;2050861;70;20566;-80
2023/12/14 00:19:03;;;;;;;10.68;6.18;;;;;;;3.09;89.16;91586.88;2051264;69;20130;-82
2023/12/14 00:21:28;;;;;;;7.85;4.13;;;;;;;3.03;89.49;91595.53;2051620;70;20291;-84
2023/12/14 00:23:54;;;;;;;6.47;4.00;;;;;;;3.04;89.70;91596.97;2051199;70;20142;-82
2023/12/14 00:26:19;;;;;;;7.22;4.80;;;;;;;2.99;88.98;91603.56;2051458;70;20150;-81
2023/12/14 00:28:45;;;;;;;7.38;4.72;;;;;;;2.79;89.15;91605.63;2051196;70;20142;-82
2023/12/14 00:31:11;;;;;;;10.25;6.10;;;;;;;2.46;89.96;91600.53;2050195;70;20157;-80
2023/12/14 00:33:36;;;;;;;11.65;7.38;;;;;;;2.75;90.06;91619.28;2051288;70;20142;-80
2023/12/14 00:36:02;;;;;;;11.10;6.60;;;;;;;2.84;89.02;91624.09;2051368;70;20166;-83
2023/12/14 00:38:28;;;;;;;8.95;6.03;;;;;;;2.86;88.96;91621.44;2051197;69;20242;-81
2023/12/14 00:40:54;;;;;;;11.00;5.85;;;;;;;2.75;89.13;91624.84;2051308;70;20142;-80
2023/12/14 00:43:19;;;;;;;11.63;7.00;;;;;;;2.85;89.23;91627.59;2051300;70;20142;-83
2023/12/14 00:45:45;;;;;;;9.20;4.85;;;;;;;2.90;88.71;91637.69;2053481;70;20154;-83
2023/12/14 00:48:11;;;;;;;9.40;5.63;;;;;;;2.69;88.95;91633.44;2051297;70;20134;-82
2023/12/14 00:50:37;;;;;;;9.20;5.57;;;;;;;2.69;90.16;91643.81;2051288;70;20138;-83
2023/12/14 00:53:03;;;;;;;9.45;5.40;;;;;;;2.69;88.92;91635.50;2050655;70;20581;-80
2023/12/14 00:55:28;;;;;;;7.95;5.00;;;;;;;2.74;88.79;91629.63;2051723;70;20177;-80
2023/12/14 00:57:54;;;;;;;6.57;3.38;;;;;;;2.76;89.33;91638.13;2051303;70;20154;-81
2023/12/14 01:00:20;;;;;;;4.63;3.10;;;;;;;2.79;89.40;91645.31;2051231;70;20598;-80
2023/12/14 01:02:47;;;;;;;8.18;3.78;;;;;;;2.73;90.35;91642.06;2051848;70;20153;-82
2023/12/14 01:05:13;;;;;;;9.35;4.90;;;;;;;2.73;90.20;91655.97;2051058;70;20158;-80
2023/12/14 01:07:39;;;;;;;7.38;4.72;;;;;;;2.80;89.54;91668.28;2051842;70;20134;-80
2023/12/14 01:10:06;;;;;;;7.78;4.82;;;;;;;2.84;88.58;91665.03;2052814;69;20161;-83
2023/12/14 01:12:31;;;;;;;8.57;4.78;;;;;;;2.71;89.22;91677.34;2052981;70;20162;-84
2023/12/14 01:14:58;;;;;;;6.57;4.70;;;;;;;2.91;88.88;91673.22;2051574;70;20162;-83
2023/12/14 01:17:24;;;;;;;6.30;4.65;;;;;;;2.95;88.50;91678.34;2051940;70;20180;-81
2023/12/14 01:19:51;;;;;;;8.35;4.57;;;;;;;2.95;88.36;91678.34;2051754;70;20584;-81
2023/12/14 01:22:18;;;;;;;6.32;4.20;;;;;;;3.02;88.46;91691.34;2051671;69;20205;-80
2023/12/14 01:24:43;;;;;;;6.82;4.03;;;;;;;2.89;88.93;91686.25;2051051;70;20158;-83
2023/12/14 01:27:10;;;;;;;5.57;3.95;;;;;;;3.00;88.64;91689.16;2047979;70;20150;-84
2023/12/14 01:29:36;;;;;;;5.50;3.83;;;;;;;3.14;89.05;91694.28;2051206;70;20170;-81
2023/12/14 01:32:02;;;;;;;6.57;3.42;;;;;;;3.03;89.57;91698.41;2051571;69;20281;-81
2023/12/14 01:34:28;;;;;;;6.05;3.40;;;;;;;3.16;91.22;91694.41;2053865;70;20154;-81
2023/12/14 01:36:54;;;;;;;4.82;2.72;;;;;;;3.24;91.27;91690.16;2051108;70;20135;-82
2023/12/14 01:39:20;;;;;;;4.13;3.00;;;;;;;3.37;89.82;91688.97;2051077;69;20142;-84
2023/12/14 01:41:46;;;;;;;4.28;2.40;;;;;;;3.41;89.61;91694.81;2051097;69;20146;-80
2023/12/14 01:44:12;;;;;;;4.20;2.75;;;;;;;3.41;90.16;91697.59;2051623;70;20601;-80
2023/12/14 01:46:41;;;;;;;6.53;3.08;;;;;;;3.50;89.78;91698.91;2052359;69;20174;-82
2023/12/14 01:49:10;;;;;;;4.72;3.38;;;;;;;3.31;90.38;91696.91;2052353;70;20241;-83
2023/12/14 01:51:43;;;;;;;3.92;2.95;;;;;;;3.39;90.42;91703.03;2052875;70;20126;-84
2023/12/14 01:54:10;;;;;;;6.18;3.13;;;;;;;3.52;89.66;91704.59;2052525;70;20144;-83
2023/12/14 01:56:42;;;;;;;5.07;3.38;;;;;;;3.36;90.57;91700.69;2055001;69;20629;-83
2023/12/14 01:59:12;;;;;;;5.10;3.00;;;;;;;3.50;89.96;91704.47;2052330;70;20212;-83
2023/12/14 02:01:45;;;;;;;4.05;2.60;;;;;;;3.55;90.20;91722.91;2052284;70;20150;-85
2023/12/14 02:04:14;;;;;;;;;;;;;;;3.61;90.50;91722.59;2052687;70;20605;-80
2023/12/14 02:06:41;;;;;;;3.15;2.30;;;;;;;3.51;89.51;91689.22;2052839;69;20054;-86
2023/12/14 02:09:07;;;;;;;4.03;2.30;;;;;;;3.66;88.51;91707.66;2051781;70;20189;-83
2023/12/14 02:11:33;;;;;;;5.30;3.08;;;;;;;3.68;88.92;91735.63;2051846;69;20242;-80
2023/12/14 02:14:06;;;;;;;4.18;2.80;;;;;;;3.40;89.06;91704.50;2051600;70;20141;-82
2023/12/14 02:16:32;;;;;;;4.15;2.97;;;;;;;3.67;88.42;91734.91;2053911;69;20205;-83
2023/12/14 02:18:58;;;;;;;4.75;2.88;;;;;;;3.66;88.51;91725.06;2052095;70;20176;-81
2023/12/14 02:21:24;;;;;;;5.60;2.90;;;;;;;3.73;88.22;91734.59;2054491;70;20605;-81
2023/12/14 02:23:49;;;;;;;4.18;2.70;;;;;;;3.75;88.04;91740.28;2054963;69;20618;-81
2023/12/14 02:26:15;;;;;;;5.53;2.85;;;;;;;3.72;87.98;91738.69;2057257;69;20220;-81
2023/12/14 02:28:41;;;;;;;3.70;2.35;;;;;;;3.70;88.47;91744.13;2054903;69;20150;-80
2023/12/14 02:31:06;;;;;;;3.35;2.40;;;;;;;3.68;89.21;91741.94;2054867;69;20150;-81
2023/12/14 02:33:32;;;;;;;3.75;2.72;;;;;;;3.79;88.99;91757.28;2054324;70;20209;-80
2023/12/14 02:36:00;;;;;;;3.40;2.13;;;;;;;3.84;88.36;91750.66;2055086;69;20153;-81
2023/12/14 02:38:26;;;;;;;2.67;2.00;;;;;;;3.76;89.05;91750.13;2054831;69;20617;-83
2023/12/14 02:40:52;;;;;;;3.00;2.15;;;;;;;3.80;88.93;91745.56;2055024;69;20146;-83
2023/12/14 02:43:18;;;;;;;2.83;2.30;;;;;;;3.86;88.97;91750.09;2054853;69;20213;-81
2023/12/14 02:45:45;;;;;;;3.25;2.50;;;;;;;3.83;89.35;91752.00;2054470;69;20316;-84
2023/12/14 02:48:10;;;;;;;4.43;2.25;;;;;;;3.79;89.50;91746.88;2054901;69;20153;-82
2023/12/14 02:50:36;;;;;;;2.45;2.05;;;;;;;3.80;89.79;91747.59;2054859;69;20161;-84
2023/12/14 02:53:02;;;;;;;2.80;1.90;;;;;;;3.87;89.28;91745.97;2054230;70;20177;-81
2023/12/14 02:55:27;;;;;;;3.20;2.40;;;;;;;3.80;89.62;91744.81;2054818;69;20181;-79
2023/12/14 02:57:53;;;;;;;3.88;2.88;;;;;;;3.87;89.10;91751.56;2057068;69;20525;-80
2023/12/14 03:00:19;;;;;;;4.38;2.95;;;;;;;3.70;89.13;91755.25;2054971;69;20246;-79
2023/12/14 03:02:45;;;;;;;5.15;2.75;;;;;;;3.76;88.92;91755.69;2054980;69;20144;-81
2023/12/14 03:05:11;;;;;;;3.90;2.45;;;;;;;3.75;88.93;91752.16;2054955;69;20147;-83
2023/12/14 03:07:36;;;;;;;4.03;2.60;;;;;;;3.85;88.10;91766.06;2054230;69;20183;-83
2023/12/14 03:10:03;;;;;;;3.70;2.65;;;;;;;3.87;88.01;91765.47;2056768;69;20534;-83
2023/12/14 03:12:33;;;;;;;3.53;2.50;;;;;;;3.76;87.83;91767.56;2054713;70;20517;-87
2023/12/14 03:14:59;;;;;;;3.58;2.20;;;;;;;3.73;88.51;91768.72;2057384;69;20232;-87
2023/12/14 03:17:25;;;;;;;4.03;2.72;;;;;;;3.75;88.05;91779.25;2055083;69;20162;-85
2023/12/14 03:19:54;;;;;;;4.75;2.55;;;;;;;3.75;88.02;91785.56;2054434;70;20138;-84
2023/12/14 03:22:20;;;;;;;4.40;3.05;;;;;;;3.51;88.92;91784.56;2054902;69;20140;-86
2023/12/14 03:24:48;;;;;;;4.97;2.90;;;;;;;3.54;88.75;91786.19;2054929;69;20145;-86
2023/12/14 03:27:14;;;;;;;4.78;3.10;;;;;;;3.65;88.12;91793.19;2055009;70;20617;-86
2023/12/14 03:29:43;;;;;;;4.18;2.80;;;;;;;3.52;88.66;91802.00;2055053;69;20154;-87
2023/12/14 03:32:12;;;;;;;5.10;3.45;;;;;;;3.36;88.81;91800.84;2054893;69;20620;-83
2023/12/14 03:34:41;;;;;;;4.95;3.67;;;;;;;3.34;88.89;91815.31;2051805;70;20618;-86
2023/12/14 03:37:10;;;;;;;6.53;3.85;;;;;;;3.04;89.77;91811.81;2055195;70;20170;-81
2023/12/14 03:39:40;;;;;;;6.68;4.20;;;;;;;2.92;91.23;91815.72;2054494;70;20184;-85
2023/12/14 03:42:13;;;;;;;8.95;4.57;;;;;;;3.00;91.88;91816.34;2054215;70;20541;-83
2023/12/14 03:44:45;;;;;;;6.72;4.00;;;;;;;3.29;90.25;91816.34;2055313;69;20166;-86
2023/12/14 03:47:12;;;;;;;6.57;3.60;;;;;;;3.35;89.31;91830.00;2054794;70;20220;-81
2023/12/14 03:49:39;;;;;;;5.43;3.80;;;;;;;3.36;89.26;91818.28;2055033;69;20232;-85
2023/12/14 03:52:08;;;;;;;6.63;4.05;;;;;;;3.41;88.97;91822.81;2055007;69;20142;-80
2023/12/14 03:54:40;;;;;;;6.35;4.20;;;;;;;3.45;88.92;91825.16;2054442;70;20169;-83
2023/12/14 03:57:06;;;;;;;6.63;4.05;;;;;;;3.46;88.35;91827.34;2055079;70;20150;-81
2023/12/14 03:59:41;;;;;;;7.45;4.68;;;;;;;3.48;88.38;91840.66;2055041;69;20165;-83
2023/12/14 04:02:07;;;;;;;7.57;4.05;;;;;;;3.38;88.60;91840.66;2055067;70;20138;-81
2023/12/14 04:04:33;;;;;;;7.13;4.50;;;;;;;3.29;88.75;91850.47;2054327;70;20169;-86
2023/12/14 04:07:02;;;;;;;6.75;4.18;;;;;;;3.29;88.85;91847.69;2054652;69;20165;-85
2023/12/14 04:09:29;;;;;;;6.30;4.13;;;;;;;3.18;88.71;91828.06;2053930;70;20225;-85
2023/12/14 04:11:56;;;;;;;6.63;4.38;;;;;;;3.45;88.64;91859.28;2054940;69;20134;-85
2023/12/14 04:14:22;;;;;;;6.28;4.47;;;;;;;3.47;88.23;91853.84;2055148;69;20193;-82
2023/12/14 04:16:48;;;;;;;6.80;4.13;;;;;;;3.44;88.38;91854.31;2055150;69;20134;-81
2023/12/14 04:19:15;;;;;;;6.63;4.05;;;;;;;3.51;88.27;91861.75;2054842;69;20656;-80
2023/12/14 04:21:42;;;;;;;6.57;4.60;;;;;;;3.52;88.21;91860.44;2054705;69;20232;-81
2023/12/14 04:24:09;;;;;;;6.22;4.20;;;;;;;3.51;88.56;91865.28;2054397;69;20570;-81
2023/12/14 04:26:34;;;;;;;6.25;4.40;;;;;;;3.57;88.26;91870.53;2056689;69;20614;-81
2023/12/14 04:29:00;;;;;;;6.30;4.25;;;;;;;3.56;88.21;91872.59;2054389;69;20165;-81
2023/12/14 04:31:25;;;;;;;8.02;4.72;;;;;;;3.20;88.98;91875.50;2054559;69;20149;-81
2023/12/14 04:33:51;;;;;;;9.02;4.72;;;;;;;3.41;89.18;91883.28;2054636;69;20142;-80
2023/12/14 04:36:17;;;;;;;6.18;4.38;;;;;;;3.43;88.79;91889.72;2054599;69;20138;-80
2023/12/14 04:38:45;;;;;;;8.30;4.47;;;;;;;3.51;88.53;91889.59;2056735;69;20268;-80
2023/12/14 04:41:12;;;;;;;7.38;4.60;;;;;;;3.58;88.04;91897.06;2054640;69;20583;-81
2023/12/14 04:43:38;;;;;;;7.57;4.20;;;;;;;3.54;88.15;91888.44;2054648;69;20650;-80
2023/12/14 04:46:05;;;;;;;9.07;4.55;;;;;;;3.55;87.87;91893.41;2054026;70;20145;-81
2023/12/14 04:48:31;;;;;;;9.70;6.00;;;;;;;3.48;88.19;91897.06;2054158;70;20150;-79
2023/12/14 04:50:57;;;;;;;7.88;5.30;;;;;;;3.59;87.84;91912.44;2052994;70;20144;-80
2023/12/14 04:53:23;;;;;;;9.80;6.20;;;;;;;3.60;87.73;91913.19;2054068;70;20204;-80
2023/12/14 04:55:48;;;;;;;9.98;6.60;;;;;;;3.53;87.87;91915.53;2054037;70;20590;-80
2023/12/14 04:58:14;;;;;;;11.00;6.45;;;;;;;3.45;88.33;91905.84;2054060;70;20174;-82
2023/12/14 05:00:41;;;;;;;9.07;6.13;;;;;;;3.52;88.13;91916.09;2050765;70;20180;-80
2023/12/14 05:03:06;;;;;;;45.58;32.80;;;;;;;3.56;87.81;91916.38;2050785;70;20209;-81
2023/12/14 05:05:32;;;;;;;14.50;10.18;;;;;;;3.57;87.48;91926.19;2051405;70;20630;-81
2023/12/14 05:07:57;;;;;;;10.10;6.70;;;;;;;3.49;88.29;91934.69;2051194;70;20587;-81
2023/12/14 05:10:24;;;;;;;8.65;5.88;;;;;;;3.59;87.53;91936.78;2051421;70;20134;-80
2023/12/14 05:12:50;;;;;;;13.68;9.00;;;;;;;3.44;88.16;91941.28;2051178;70;20150;-82
2023/12/14 05:15:15;;;;;;;16.48;8.90;;;;;;;3.44;88.23;91944.06;2051309;70;20479;-81
2023/12/14 05:17:41;;;;;;;17.55;9.10;;;;;;;3.36;88.43;91945.50;2050652;70;20142;-85
2023/12/14 05:20:10;;;;;;;12.82;7.88;;;;;;;3.29;88.79;91967.31;2050550;70;20606;-80
2023/12/14 05:22:36;;;;;;;17.23;9.98;;;;;;;3.51;88.57;91961.94;2051268;70;20146;-82
2023/12/14 05:25:04;;;;;;;18.40;11.98;;;;;;;3.54;87.95;91969.84;2051072;70;20221;-84
2023/12/14 05:27:29;;;;;;;27.13;13.48;;;;;;;3.61;87.83;91981.44;2050698;70;20146;-84
2023/12/14 05:29:57;;;;;;;20.30;12.68;;;;;;;3.64;87.84;91980.28;2051208;70;20138;-84
2023/12/14 05:32:23;;;;;;;19.02;12.07;;;;;;;3.63;87.59;91990.69;2051175;70;20182;-81
2023/12/14 05:34:48;;;;;;;19.70;12.00;;;;;;;3.52;87.81;91985.66;2051347;70;20209;-80
2023/12/14 05:37:14;;;;;;;18.45;10.30;;;;;;;3.67;87.51;92004.91;2051810;70;20149;-84
2023/12/14 05:39:43;;;;;;;18.00;10.57;;;;;;;3.75;87.39;91999.19;2052834;69;20142;-85
2023/12/14 05:42:08;;;;;;;15.75;9.77;;;;;;;3.72;87.79;92003.88;2054615;69;20141;-85
2023/12/14 05:44:34;;;;;;;12.27;7.85;;;;;;;3.73;87.67;92010.19;2050638;70;20150;-81
2023/12/14 05:47:00;;;;;;;11.13;7.65;;;;;;;3.76;87.54;92012.53;2050299;70;20662;-81
2023/12/14 05:49:25;;;;;;;10.45;7.13;;;;;;;3.83;87.17;92019.28;2050702;69;20154;-81
2023/12/14 05:51:51;;;;;;;10.88;7.22;;;;;;;3.86;87.06;92020.16;2051271;69;20154;-81
2023/12/14 05:54:16;;;;;;;16.92;9.98;;;;;;;3.83;87.20;92024.84;2050675;70;20622;-81
2023/12/14 05:56:42;;;;;;;21.63;11.38;;;;;;;3.71;87.87;92037.84;2051392;70;20154;-86
2023/12/14 05:59:07;;;;;;;18.13;11.25;;;;;;;3.82;87.40;92035.25;2051592;70;20610;-87
2023/12/14 06:01:33;;;;;;;17.90;10.82;;;;;;;3.92;86.81;92042.88;2051564;70;20146;-82
2023/12/14 06:03:59;;;;;;;17.23;11.43;;;;;;;3.89;86.69;92047.56;2051391;70;20158;-85
2023/12/14 06:06:24;;;;;;;19.70;11.38;;;;;;;3.85;86.83;92040.97;2051462;70;20184;-82
2023/12/14 06:08:50;;;;;;;16.80;9.80;;;;;;;3.84;86.94;92056.94;2050890;70;20119;-85
2023/12/14 06:11:15;;;;;;;15.07;10.20;;;;;;;3.58;87.82;92060.56;2051307;70;20138;-84
2023/12/14 06:13:41;;;;;;;22.42;11.25;;;;;;;3.30;88.94;92066.16;2050831;70;20242;-81
2023/12/14 06:16:12;;;;;;;19.77;11.07;;;;;;;3.47;88.40;92061.81;2051422;69;20178;-82
2023/12/14 06:18:41;;;;;;;21.60;11.50;;;;;;;3.70;87.87;92072.59;2051518;70;20146;-81
2023/12/14 06:21:07;;;;;;;19.35;11.05;;;;;;;3.79;87.19;92075.38;2051472;69;20177;-81
2023/12/14 06:23:32;;;;;;;20.77;10.80;;;;;;;3.84;86.88;92082.00;2050958;70;20292;-81
2023/12/14 06:25:58;;;;;;;16.83;10.48;;;;;;;3.78;87.05;92085.06;2050998;70;20617;-81
2023/12/14 06:28:24;;;;;;;19.90;10.38;;;;;;;3.65;87.79;92090.28;2051298;70;20137;-81
2023/12/14 06:30:50;;;;;;;19.75;11.15;;;;;;;3.75;87.45;92093.84;2051628;70;20251;-81
2023/12/14 06:33:15;;;;;;;20.48;12.13;;;;;;;3.78;87.02;92096.19;2051477;70;20154;-80
2023/12/14 06:35:43;;;;;;;18.40;11.48;;;;;;;3.82;87.04;92093.72;2051356;70;20546;-83
2023/12/14 06:38:08;;;;;;;21.02;11.90;;;;;;;3.78;87.07;92090.63;2051580;69;20146;-81
2023/12/14 06:40:35;;;;;;;21.42;12.95;;;;;;;3.85;87.25;92105.00;2051728;69;20145;-80
2023/12/14 06:43:03;;;;;;;17.30;11.75;;;;;;;3.88;86.95;92112.19;2052013;70;20143;-81
2023/12/14 06:45:29;;;;;;;17.40;10.85;;;;;;;3.89;86.48;92116.44;2052108;70;20201;-84
2023/12/14 06:47:55;;;;;;;13.98;10.00;;;;;;;3.93;86.68;92116.75;2051580;70;20147;-84
2023/12/14 06:50:22;;;;;;;15.23;9.82;;;;;;;3.86;86.73;92112.78;2051773;70;20161;-85
2023/12/14 06:52:47;;;;;;;12.45;8.55;;;;;;;3.92;86.62;92123.66;2052050;69;20135;-82
2023/12/14 06:55:14;;;;;;;12.48;8.68;;;;;;;3.91;86.67;92128.50;2052812;70;20590;-82
2023/12/14 06:57:46;;;;;;;15.10;10.00;;;;;;;3.93;86.97;92133.47;2055797;69;20348;-84
2023/12/14 07:00:14;;;;;;;14.45;9.45;;;;;;;3.97;86.67;92139.34;2054158;69;20154;-85
2023/12/14 07:02:40;;;;;;;13.55;8.90;;;;;;;3.99;86.43;92145.81;2053047;70;20149;-83
2023/12/14 07:05:07;;;;;;;12.63;8.65;;;;;;;3.93;86.73;92145.34;2054776;70;20154;-83
2023/12/14 07:07:32;;;;;;;12.10;8.10;;;;;;;3.89;87.13;92149.88;2054906;69;20282;-84
2023/12/14 07:09:58;;;;;;;11.55;8.07;;;;;;;4.00;86.59;92155.63;2054739;69;20150;-81
2023/12/14 07:12:23;;;;;;;11.80;8.25;;;;;;;4.03;86.70;92160.03;2054003;69;20142;-81
2023/12/14 07:14:49;;;;;;;11.27;7.68;;;;;;;3.93;86.97;92158.53;2050801;70;20145;-81
2023/12/14 07:17:15;;;;;;;13.15;8.50;;;;;;;4.04;86.79;92169.88;2051035;70;20217;-81
2023/12/14 07:19:40;;;;;;;13.70;9.65;;;;;;;4.03;87.00;92168.41;2051467;69;20162;-83
2023/12/14 07:22:06;;;;;;;15.68;10.10;;;;;;;4.10;86.58;92180.00;2051343;70;20652;-82
2023/12/14 07:24:31;;;;;;;18.60;12.02;;;;;;;4.00;86.99;92186.28;2051468;69;20158;-81
2023/12/14 07:26:57;;;;;;;24.67;13.35;;;;;;;4.01;87.17;92189.78;2051436;69;20138;-84
2023/12/14 07:29:22;;;;;;;36.08;18.52;;;;;;;4.11;86.57;92184.25;2051381;70;20199;-82
2023/12/14 07:31:48;;;;;;;41.45;20.55;;;;;;;4.14;86.39;92191.44;2051408;69;20145;-81
2023/12/14 07:34:14;;;;;;;23.65;14.05;;;;;;;4.17;86.34;92190.25;2051463;70;20610;-82
2023/12/14 07:36:41;;;;;;;22.50;11.98;;;;;;;4.19;86.13;92190.44;2051354;70;20138;-83
2023/12/14 07:39:06;;;;;;;17.77;11.13;;;;;;;4.17;86.36;92199.38;2051418;70;20176;-81
2023/12/14 07:41:32;;;;;;;24.42;14.82;;;;;;;4.20;86.33;92195.41;2051408;70;20150;-82
2023/12/14 07:43:58;;;;;;;24.92;13.13;;;;;;;4.28;86.01;92198.09;2051419;69;20155;-85
2023/12/14 07:46:24;;;;;;;19.95;11.80;;;;;;;4.34;86.41;92204.84;2051338;70;20653;-85
2023/12/14 07:48:50;;;;;;;17.17;10.50;;;;;;;4.36;86.18;92206.34;2052042;70;20215;-85
2023/12/14 07:51:16;;;;;;;9.88;5.97;;;;;;;4.51;85.98;92211.63;2051426;69;20173;-82
2023/12/14 07:53:42;;;;;;;14.68;8.75;;;;;;;4.46;86.02;92226.59;2051198;70;20153;-80
2023/12/14 07:56:08;;;;;;;17.17;9.75;;;;;;;4.57;85.88;92228.81;2051460;69;20158;-81
2023/12/14 07:58:34;;;;;;;15.68;9.77;;;;;;;4.56;86.26;92232.91;2051373;70;20665;-82
2023/12/14 08:01:00;;;;;;;20.60;13.27;;;;;;;4.65;86.05;92231.47;2051412;70;20150;-81
2023/12/14 08:03:25;;;;;;;11.07;6.53;;;;;;;4.62;85.46;92229.84;2051311;70;20490;-81
2023/12/14 08:05:51;;;;;;;9.73;5.43;;;;;;;4.48;86.05;92244.19;2051321;69;20186;-80
2023/12/14 08:08:17;;;;;;;11.82;7.05;;;;;;;4.54;85.36;92227.94;2051266;70;20135;-81
2023/12/14 08:10:42;;;;;;;19.38;9.52;;;;;;;4.30;87.01;92237.97;2053596;70;20139;-81
2023/12/14 08:13:08;;;;;;;14.65;9.25;;;;;;;4.38;87.09;92246.22;2051289;70;20526;-81
2023/12/14 08:15:34;;;;;;;16.60;10.07;;;;;;;4.63;86.14;92236.88;2051372;70;20598;-81
2023/12/14 08:17:59;;;;;;;21.15;10.30;;;;;;;4.74;85.66;92233.53;2053491;70;20134;-81
2023/12/14 08:20:25;;;;;;;15.93;9.95;;;;;;;4.73;85.86;92232.09;2051188;70;20188;-81
2023/12/14 08:22:52;;;;;;;13.88;8.40;;;;;;;4.79;84.85;92243.69;2051273;70;20127;-81
2023/12/14 08:25:17;;;;;;;16.05;9.05;;;;;;;4.71;85.52;92241.00;2051256;70;20178;-79
2023/12/14 08:27:46;;;;;;;18.27;10.77;;;;;;;4.50;86.26;92252.00;2051265;70;20658;-80
2023/12/14 08:30:12;;;;;;;19.92;11.65;;;;;;;4.35;87.11;92250.16;2051297;70;20143;-80
2023/12/14 08:32:38;;;;;;;20.75;11.75;;;;;;;4.71;86.76;92265.38;2051356;70;20143;-78
2023/12/14 08:35:04;;;;;;;21.05;11.38;;;;;;;4.76;86.87;92267.88;2051330;70;20146;-82
2023/12/14 08:37:30;;;;;;;21.15;11.18;;;;;;;4.91;86.73;92271.75;2051379;70;20519;-81
2023/12/14 08:39:55;;;;;;;22.23;11.80;;;;;;;4.96;86.43;92276.31;2051298;70;20154;-80
2023/12/14 08:42:21;;;;;;;20.33;12.05;;;;;;;4.65;87.61;92290.75;2051386;70;20185;-80
2023/12/14 08:44:47;;;;;;;27.50;17.58;;;;;;;4.95;86.71;92289.53;2051368;70;20164;-79
2023/12/14 08:47:13;;;;;;;24.42;14.30;;;;;;;5.09;86.40;92298.94;2051309;70;20182;-80
2023/12/14 08:49:39;;;;;;;22.55;12.95;;;;;;;5.23;85.97;92302.03;2051270;70;20163;-81
2023/12/14 08:52:04;;;;;;;19.98;12.88;;;;;;;5.23;85.15;92309.69;2051203;70;20217;-79
2023/12/14 08:54:30;;;;;;;16.55;10.63;;;;;;;5.00;85.42;92315.66;2053598;70;20690;-79
2023/12/14 08:56:56;;;;;;;16.73;10.15;;;;;;;5.19;85.28;92320.53;2051229;70;20150;-79
2023/12/14 08:59:21;;;;;;;16.75;10.77;;;;;;;5.39;84.39;92321.28;2051330;70;20134;-82
2023/12/14 09:01:47;;;;;;;20.45;12.85;;;;;;;5.44;84.29;92323.78;2054552;69;20153;-81
2023/12/14 09:04:13;;;;;;;18.10;11.60;;;;;;;5.46;84.06;92309.25;2054616;69;20261;-86
2023/12/14 09:06:42;;;;;;;17.15;11.20;;;;;;;5.42;84.25;92306.16;2054570;69;20141;-85
2023/12/14 09:09:07;;;;;;;15.98;11.00;;;;;;;5.75;84.20;92323.19;2054915;70;20146;-86
2023/12/14 09:11:34;;;;;;;17.60;10.82;;;;;;;5.82;84.06;92325.13;2056194;69;20544;-84
2023/12/14 09:14:00;;;;;;;17.60;10.77;;;;;;;6.00;83.57;92326.44;2055964;69;20173;-79
2023/12/14 09:16:26;;;;;;;15.85;10.52;;;;;;;6.10;83.19;92329.22;2054784;69;20581;-81
2023/12/14 09:18:52;;;;;;;16.58;10.00;;;;;;;6.20;83.49;92332.72;2055074;70;20158;-85
2023/12/14 09:21:18;;;;;;;22.98;13.35;;;;;;;5.71;83.84;92345.97;2054345;70;20503;-84
2023/12/14 09:23:43;;;;;;;23.52;13.30;;;;;;;6.15;83.73;92350.53;2054494;69;20131;-80
2023/12/14 09:26:10;;;;;;;23.88;13.55;;;;;;;6.27;83.74;92348.59;2054998;69;20149;-81
2023/12/14 09:28:36;;;;;;;25.77;14.52;;;;;;;6.39;82.75;92359.91;2054954;69;20146;-81
2023/12/14 09:31:03;;;;;;;21.85;13.10;;;;;;;6.24;82.07;92363.78;2055159;69;20149;-82
2023/12/14 09:33:30;;;;;;;21.70;12.85;;;;;;;5.72;84.43;92375.38;2055017;69;20141;-86
2023/12/14 09:35:55;;;;;;;24.27;14.82;;;;;;;5.95;83.64;92371.44;2055030;69;20149;-85
2023/12/14 09:38:21;;;;;;;22.13;12.85;;;;;;;6.09;83.60;92375.25;2055045;69;20146;-86
2023/12/14 09:40:47;;;;;;;23.00;11.82;;;;;;;6.43;82.52;92373.44;2054997;69;20499;-85
2023/12/14 09:43:13;;;;;;;19.00;10.88;;;;;;;6.63;81.20;92388.84;2055078;69;20146;-86
2023/12/14 09:45:41;;;;;;;17.50;11.10;;;;;;;6.74;81.55;92393.81;2054915;69;20137;-85
2023/12/14 09:48:10;;;;;;;14.57;9.43;;;;;;;6.81;80.88;92389.38;2054992;70;20161;-86
2023/12/14 09:50:42;;;;;;;14.77;9.00;;;;;;;6.99;80.12;92382.22;2054476;70;20142;-82
2023/12/14 09:53:08;;;;;;;13.38;8.90;;;;;;;7.17;79.41;92393.94;2054919;69;20181;-82
2023/12/14 09:55:34;;;;;;;12.68;8.25;;;;;;;7.38;79.50;92401.66;2056141;69;20146;-92
2023/12/14 09:58:02;;;;;;;12.70;8.55;;;;;;;7.38;79.58;92391.19;2055765;69;20146;-82
2023/12/14 10:00:39;;;;;;;14.77;8.55;;;;;;;7.32;79.28;92395.63;2055635;70;20142;-83
2023/12/14 10:03:28;;;;;;;15.27;8.85;;;;;;;7.17;78.58;92405.16;2055643;69;20169;-82
2023/12/14 10:05:58;;;;;;;14.88;9.70;;;;;;;6.82;79.04;92404.81;2057338;69;20185;-82
2023/12/14 10:08:25;;;;;;;19.50;12.45;;;;;;;6.25;80.20;92401.56;2055247;69;20213;-85
2023/12/14 10:10:53;;;;;;;22.85;14.18;;;;;;;6.58;80.63;92403.88;2055586;69;20613;-80
2023/12/14 10:13:19;;;;;;;22.25;14.32;;;;;;;6.96;80.09;92403.00;2054339;70;20628;-82
2023/12/14 10:15:48;;;;;;;18.23;11.07;;;;;;;7.01;79.61;92401.97;2054964;69;20609;-81
2023/12/14 10:18:36;;;;;;;17.75;10.35;;;;;;;7.09;79.25;92404.59;2055386;70;20142;-81
2023/12/14 10:21:01;;;;;;;13.70;9.55;;;;;;;7.09;78.82;92402.50;2055168;69;20517;-81
2023/12/14 10:23:29;;;;;;;17.38;10.43;;;;;;;7.28;79.32;92387.69;2054662;70;20602;-80
2023/12/14 10:25:57;;;;;;;15.40;8.55;;;;;;;7.18;78.76;92391.88;2055010;69;20153;-79
2023/12/14 10:28:24;;;;;;;17.42;8.10;;;;;;;7.27;78.81;92402.28;2054991;69;20169;-81
2023/12/14 10:30:49;;;;;;;10.93;7.80;;;;;;;7.22;77.59;92397.75;2055032;69;20150;-79
2023/12/14 10:33:16;;;;;;;11.00;7.45;;;;;;;7.00;78.24;92388.56;2054523;69;20146;-80
2023/12/14 10:35:43;;;;;;;11.13;7.32;;;;;;;7.17;78.40;92396.75;2054259;70;20150;-82
2023/12/14 10:38:11;;;;;;;26.35;16.10;;;;;;;7.29;77.59;92394.06;2054967;69;20166;-81
2023/12/14 10:40:40;;;;;;;19.63;10.18;;;;;;;7.38;77.38;92402.41;2054572;69;20157;-80
2023/12/14 10:43:06;;;;;;;18.13;11.27;;;;;;;7.32;77.65;92404.75;2055262;69;20708;-80
2023/12/14 10:45:33;;;;;;;16.75;10.32;;;;;;;7.48;77.69;92410.00;2054239;69;20146;-80
2023/12/14 10:48:00;;;;;;;13.57;8.77;;;;;;;7.64;77.48;92402.69;2054540;69;20137;-79
2023/12/14 10:50:30;;;;;;;11.20;6.93;;;;;;;7.97;77.48;92410.41;2054940;69;20241;-78
2023/12/14 10:52:57;;;;;;;13.40;7.18;;;;;;;8.03;76.37;92403.16;2054779;69;20229;-80
2023/12/14 10:55:23;;;;;;;13.32;8.27;;;;;;;6.92;77.21;92411.16;2054874;69;20273;-80
2023/12/14 10:57:51;;;;;;;17.13;11.32;;;;;;;6.99;79.31;92415.81;2054867;69;20200;-79
2023/12/14 11:00:17;;;;;;;18.75;11.82;;;;;;;7.77;78.38;92427.38;2054319;69;20138;-79
2023/12/14 11:02:46;;;;;;;18.48;11.10;;;;;;;7.83;76.64;92430.59;2054943;69;20220;-79
2023/12/14 11:05:15;;;;;;;17.63;10.90;;;;;;;7.97;77.27;92432.84;2054284;70;20162;-80
2023/12/14 11:07:54;;;;;;;15.75;9.45;;;;;;;7.70;77.73;92431.13;2054713;70;20146;-80
2023/12/14 11:10:26;;;;;;;13.48;8.02;;;;;;;7.74;77.21;92431.38;2054314;69;20146;-79
2023/12/14 11:13:11;;;;;;;10.45;6.53;;;;;;;7.79;76.73;92433.13;2054706;70;20169;-79
2023/12/14 11:15:39;;;;;;;13.35;6.65;;;;;;;7.73;75.79;92443.19;2054722;70;20165;-80
2023/12/14 11:18:12;;;;;;;11.30;6.60;;;;;;;7.93;75.89;92452.94;2054492;70;20154;-79
2023/12/14 11:20:47;;;;;;;14.15;9.27;;;;;;;7.82;75.89;92448.72;2054560;70;20134;-78
2023/12/14 11:23:13;;;;;;;16.15;9.32;;;;;;;7.79;75.78;92444.34;2055340;69;20608;-78
2023/12/14 11:25:42;;;;;;;16.75;8.40;;;;;;;7.64;76.75;92451.03;2054858;69;20154;-79
2023/12/14 11:28:08;;;;;;;12.88;8.10;;;;;;;7.55;76.43;92457.44;2054791;69;20617;-81
2023/12/14 11:30:35;;;;;;;12.43;8.00;;;;;;;7.62;77.23;92456.50;2055010;69;20165;-80
2023/12/14 11:33:01;;;;;;;16.95;8.18;;;;;;;7.60;76.91;92456.34;2055023;69;20248;-81